Time;durP1;ratioP1;P1;durP2;ratioP2;P2;SDS_P1;SDS_P2;PMS_P1;PMS_P2;Temp;Humidity;BMP_temperature;BMP_pressure;BME280_temperature;BME280_humidity;BME280_pressure;Samples;Min_cycle;Max_cycle;Signal;HPM_P1;HPM_P2
2023/04/20 00:01:30;;;;;;;68.35;29.83;;;;;;;;;;6282557;28;20057;-62
2023/04/20 00:04:30;;;;;;;70.18;30.95;;;;;;;;;;6284692;28;20048;-51
2023/04/20 00:07:32;;;;;;;71.95;31.85;;;;;;;;;;6269878;28;20452;-52
2023/04/20 00:10:32;;;;;;;76.90;32.65;;;;;;;;;;6267543;28;20041;-50
2023/04/20 00:13:33;;;;;;;78.18;33.85;;;;;;;;;;6269087;28;20495;-50
2023/04/20 00:16:34;;;;;;;75.45;32.13;;;;;;;;;;6268853;28;20037;-51
2023/04/20 00:19:35;;;;;;;84.47;33.78;;;;;;;;;;6266193;28;20059;-50
2023/04/20 00:22:35;;;;;;;76.07;31.10;;;;;;;;;;6269183;28;20238;-48
2023/04/20 00:25:36;;;;;;;78.30;31.63;;;;;;;;;;6269015;28;20075;-54
2023/04/20 00:28:37;;;;;;;83.32;32.88;;;;;;;;;;6268863;28;20674;-56
2023/04/20 00:31:37;;;;;;;81.43;33.53;;;;;;;;;;6266864;28;20867;-49
2023/04/20 00:34:38;;;;;;;86.50;34.03;;;;;;;;;;6269689;28;20052;-50
2023/04/20 00:37:39;;;;;;;82.05;33.30;;;;;;;;;;6266897;28;20049;-53
2023/04/20 00:40:42;;;;;;;81.82;33.90;;;;;;;;;;6269314;28;20052;-49
2023/04/20 00:43:50;;;;;;;83.72;34.90;;;;;;;;;;6282902;28;20033;-53
2023/04/20 00:46:53;;;;;;;88.80;35.08;;;;;;;;;;6283311;28;20500;-50
2023/04/20 00:49:54;;;;;;;85.90;32.38;;;;;;;;;;6275966;28;20056;-53
2023/04/20 00:52:55;;;;;;;88.95;34.38;;;;;;;;;;6281528;28;20502;-52
2023/04/20 00:55:56;;;;;;;89.32;34.45;;;;;;;;;;6281437;28;20064;-48
2023/04/20 00:58:56;;;;;;;89.35;34.97;;;;;;;;;;6282870;28;20044;-49
2023/04/20 01:01:57;;;;;;;89.88;34.17;;;;;;;;;;6277226;28;20060;-49
2023/04/20 01:04:58;;;;;;;93.57;35.90;;;;;;;;;;6282583;28;20047;-48
2023/04/20 01:07:59;;;;;;;90.63;35.42;;;;;;;;;;6284086;28;20048;-50
2023/04/20 01:10:59;;;;;;;91.82;35.65;;;;;;;;;;6280296;28;20094;-52
2023/04/20 01:14:00;;;;;;;98.53;34.85;;;;;;;;;;6278431;28;20420;-49
2023/04/20 01:17:03;;;;;;;98.72;35.65;;;;;;;;;;6282693;28;20045;-53
2023/04/20 01:20:10;;;;;;;87.13;34.00;;;;;;;;;;6281339;28;20033;-49
2023/04/20 01:23:10;;;;;;;90.85;36.15;;;;;;;;;;6280537;28;20503;-53
2023/04/20 01:26:15;;;;;;;85.47;32.88;;;;;;;;;;6280367;28;20087;-51
2023/04/20 01:29:15;;;;;;;90.38;33.75;;;;;;;;;;6279554;28;20052;-52
2023/04/20 01:32:16;;;;;;;91.25;34.08;;;;;;;;;;6281290;28;20068;-53
2023/04/20 01:35:16;;;;;;;87.45;33.25;;;;;;;;;;6281879;28;20041;-52
2023/04/20 01:38:19;;;;;;;91.05;33.65;;;;;;;;;;6278677;28;20547;-51
2023/04/20 01:41:19;;;;;;;91.25;32.78;;;;;;;;;;6280168;28;20036;-60
2023/04/20 01:44:20;;;;;;;92.57;35.80;;;;;;;;;;6284477;28;21062;-57
2023/04/20 01:47:21;;;;;;;86.80;33.35;;;;;;;;;;6282291;28;20028;-49
2023/04/20 01:50:21;;;;;;;86.40;34.15;;;;;;;;;;6276317;28;20040;-49
2023/04/20 01:53:22;;;;;;;83.95;33.20;;;;;;;;;;6280923;28;20507;-50
2023/04/20 01:56:23;;;;;;;92.57;33.83;;;;;;;;;;6282885;28;20056;-52
2023/04/20 01:59:23;;;;;;;93.30;37.60;;;;;;;;;;6277964;28;20040;-56
2023/04/20 02:02:24;;;;;;;101.95;36.90;;;;;;;;;;6290211;28;20052;-51
2023/04/20 02:05:25;;;;;;;95.43;36.38;;;;;;;;;;6280867;28;20426;-55
2023/04/20 02:08:25;;;;;;;92.50;33.47;;;;;;;;;;6268479;28;20144;-62
2023/04/20 02:11:26;;;;;;;86.55;33.78;;;;;;;;;;6267302;28;20061;-50
2023/04/20 02:14:26;;;;;;;82.57;32.90;;;;;;;;;;6268000;28;20044;-54
2023/04/20 02:17:27;;;;;;;87.95;32.20;;;;;;;;;;6265869;28;20040;-52
2023/04/20 02:20:28;;;;;;;88.82;33.88;;;;;;;;;;6276448;28;20059;-54
2023/04/20 02:23:28;;;;;;;85.63;32.75;;;;;;;;;;6268413;28;20522;-53
2023/04/20 02:26:29;;;;;;;81.78;33.10;;;;;;;;;;6268178;28;20044;-51
2023/04/20 02:29:30;;;;;;;90.47;33.70;;;;;;;;;;6267317;28;20943;-62
2023/04/20 02:32:31;;;;;;;86.95;33.22;;;;;;;;;;6267319;28;20072;-50
2023/04/20 02:35:32;;;;;;;90.82;35.63;;;;;;;;;;6266143;28;20056;-50
2023/04/20 02:38:33;;;;;;;88.65;35.45;;;;;;;;;;6266477;28;20514;-51
2023/04/20 02:41:33;;;;;;;89.65;33.97;;;;;;;;;;6266833;28;20048;-51
2023/04/20 02:44:34;;;;;;;83.97;31.70;;;;;;;;;;6274115;28;20402;-50
2023/04/20 02:47:34;;;;;;;79.65;31.58;;;;;;;;;;6268185;28;20056;-52
2023/04/20 02:50:37;;;;;;;84.68;32.75;;;;;;;;;;6266214;28;20136;-60
2023/04/20 02:53:37;;;;;;;76.97;31.08;;;;;;;;;;6279803;28;20052;-54
2023/04/20 02:56:38;;;;;;;75.45;30.45;;;;;;;;;;6269756;28;20072;-53
2023/04/20 02:59:38;;;;;;;72.78;29.27;;;;;;;;;;6266362;28;20419;-52
2023/04/20 03:02:39;;;;;;;74.55;29.17;;;;;;;;;;6266392;28;20088;-58
2023/04/20 03:05:40;;;;;;;78.35;29.25;;;;;;;;;;6268949;28;20049;-53
2023/04/20 03:08:40;;;;;;;74.45;29.80;;;;;;;;;;6269507;28;20045;-51
2023/04/20 03:11:41;;;;;;;82.45;31.27;;;;;;;;;;6278996;28;20056;-50
2023/04/20 03:14:42;;;;;;;80.32;30.42;;;;;;;;;;6266341;28;20040;-56
2023/04/20 03:17:42;;;;;;;79.60;30.73;;;;;;;;;;6268407;28;20245;-53
2023/04/20 03:20:43;;;;;;;71.20;28.65;;;;;;;;;;6267692;28;20498;-54
2023/04/20 03:23:43;;;;;;;74.25;30.08;;;;;;;;;;6278579;28;20355;-48
2023/04/20 03:26:44;;;;;;;73.50;30.35;;;;;;;;;;6279246;28;20407;-50
2023/04/20 03:29:47;;;;;;;77.32;31.27;;;;;;;;;;6267338;28;20419;-52
2023/04/20 03:32:48;;;;;;;78.75;32.35;;;;;;;;;;6270664;28;20053;-52
2023/04/20 03:35:48;;;;;;;78.38;30.58;;;;;;;;;;6267535;28;20071;-50
2023/04/20 03:38:49;;;;;;;72.22;29.75;;;;;;;;;;6267614;28;20040;-61
2023/04/20 03:41:50;;;;;;;71.90;29.83;;;;;;;;;;6266160;28;20550;-50
2023/04/20 03:44:50;;;;;;;65.07;29.35;;;;;;;;;;6267382;28;20813;-54
2023/04/20 03:47:51;;;;;;;70.20;29.27;;;;;;;;;;6266238;28;20392;-56
2023/04/20 03:50:52;;;;;;;73.68;29.35;;;;;;;;;;6269351;28;20039;-51
2023/04/20 03:53:52;;;;;;;67.30;29.20;;;;;;;;;;6270426;28;20041;-52
2023/04/20 03:56:53;;;;;;;65.03;29.05;;;;;;;;;;6273303;28;20033;-54
2023/04/20 03:59:53;;;;;;;70.38;28.92;;;;;;;;;;6271637;28;20449;-48
2023/04/20 04:02:54;;;;;;;61.67;27.65;;;;;;;;;;6273494;28;20048;-60
2023/04/20 04:05:55;;;;;;;71.05;28.35;;;;;;;;;;6271976;28;20052;-48
2023/04/20 04:08:55;;;;;;;70.38;28.17;;;;;;;;;;6271805;28;20055;-52
2023/04/20 04:11:56;;;;;;;62.92;27.48;;;;;;;;;;6270971;28;20784;-52
2023/04/20 04:14:57;;;;;;;66.82;27.20;;;;;;;;;;6269971;28;20510;-57
2023/04/20 04:17:57;;;;;;;65.82;27.77;;;;;;;;;;6271666;28;20048;-60
2023/04/20 04:20:58;;;;;;;66.00;28.17;;;;;;;;;;6269232;28;20063;-51
2023/04/20 04:23:59;;;;;;;71.55;29.38;;;;;;;;;;6271211;28;20044;-49
2023/04/20 04:27:04;;;;;;;67.88;28.05;;;;;;;;;;6271514;28;20198;-50
2023/04/20 04:30:05;;;;;;;67.45;27.80;;;;;;;;;;6274294;28;20040;-49
2023/04/20 04:33:06;;;;;;;66.53;27.60;;;;;;;;;;6290294;28;20055;-59
2023/04/20 04:36:07;;;;;;;67.78;28.15;;;;;;;;;;6274903;28;20051;-51
2023/04/20 04:39:08;;;;;;;75.55;27.58;;;;;;;;;;6269104;28;20049;-53
2023/04/20 04:42:08;;;;;;;67.28;25.48;;;;;;;;;;6275491;28;20831;-52
2023/04/20 04:45:09;;;;;;;64.85;26.60;;;;;;;;;;6269352;28;20078;-53
2023/04/20 04:48:11;;;;;;;70.70;27.27;;;;;;;;;;6268556;28;20430;-54
2023/04/20 04:51:11;;;;;;;62.92;25.15;;;;;;;;;;6268667;28;20036;-58
2023/04/20 04:54:12;;;;;;;62.88;25.35;;;;;;;;;;6268100;28;20051;-53
2023/04/20 04:57:13;;;;;;;62.50;26.25;;;;;;;;;;6270338;28;20098;-52
2023/04/20 05:00:14;;;;;;;59.77;25.67;;;;;;;;;;6270144;28;20117;-54
2023/04/20 05:03:15;;;;;;;60.53;25.87;;;;;;;;;;6269056;28;20435;-52
2023/04/20 05:06:16;;;;;;;67.88;26.90;;;;;;;;;;6268563;28;20063;-51
2023/04/20 05:09:16;;;;;;;54.75;23.23;;;;;;;;;;6266826;28;20128;-52
2023/04/20 05:12:18;;;;;;;62.00;24.83;;;;;;;;;;6269626;28;20032;-53
2023/04/20 05:15:18;;;;;;;56.55;24.13;;;;;;;;;;6271436;28;20432;-56
2023/04/20 05:18:19;;;;;;;56.30;23.55;;;;;;;;;;6268409;28;20064;-55
2023/04/20 05:21:19;;;;;;;63.05;24.92;;;;;;;;;;6266599;28;20037;-55
2023/04/20 05:24:20;;;;;;;65.15;25.77;;;;;;;;;;6270680;28;20045;-51
2023/04/20 05:27:21;;;;;;;65.88;26.23;;;;;;;;;;6267550;28;20044;-60
2023/04/20 05:30:21;;;;;;;66.47;25.40;;;;;;;;;;6264554;28;20033;-53
2023/04/20 05:33:22;;;;;;;62.00;24.83;;;;;;;;;;6268911;28;20162;-53
2023/04/20 05:36:22;;;;;;;66.65;25.83;;;;;;;;;;6266774;28;20067;-54
2023/04/20 05:39:23;;;;;;;61.33;23.55;;;;;;;;;;6267137;28;20141;-59
2023/04/20 05:42:23;;;;;;;53.22;22.10;;;;;;;;;;6268220;28;20044;-57
2023/04/20 05:45:24;;;;;;;52.25;22.08;;;;;;;;;;6268047;28;20055;-54
2023/04/20 05:48:26;;;;;;;55.17;22.70;;;;;;;;;;6268604;28;20484;-55
2023/04/20 05:51:30;;;;;;;59.25;23.73;;;;;;;;;;6266051;28;20049;-56
2023/04/20 05:54:30;;;;;;;57.63;25.00;;;;;;;;;;6269866;28;20115;-59
2023/04/20 05:57:31;;;;;;;61.08;24.90;;;;;;;;;;6269136;28;20139;-51
2023/04/20 06:00:32;;;;;;;68.25;26.67;;;;;;;;;;6263688;28;20056;-52
2023/04/20 06:03:32;;;;;;;60.15;24.50;;;;;;;;;;6268851;28;20139;-50
2023/04/20 06:06:33;;;;;;;63.35;24.85;;;;;;;;;;6267686;28;20574;-53
2023/04/20 06:09:33;;;;;;;63.63;24.63;;;;;;;;;;6265140;28;20412;-53
2023/04/20 06:12:34;;;;;;;62.08;23.60;;;;;;;;;;6267272;28;20045;-54
2023/04/20 06:15:35;;;;;;;55.10;22.38;;;;;;;;;;6266405;28;20138;-52
2023/04/20 06:18:36;;;;;;;59.63;23.20;;;;;;;;;;6270874;28;20558;-55
2023/04/20 06:21:37;;;;;;;63.20;23.77;;;;;;;;;;6267343;28;20071;-56
2023/04/20 06:24:37;;;;;;;49.08;22.20;;;;;;;;;;6267207;28;20052;-54
2023/04/20 06:27:38;;;;;;;60.08;23.88;;;;;;;;;;6267377;28;20045;-56
2023/04/20 06:30:39;;;;;;;55.10;21.48;;;;;;;;;;6265342;28;20049;-52
2023/04/20 06:33:39;;;;;;;54.30;21.92;;;;;;;;;;6267849;28;20434;-51
2023/04/20 06:36:43;;;;;;;54.13;21.80;;;;;;;;;;6268296;28;20029;-56
2023/04/20 06:39:43;;;;;;;48.70;19.92;;;;;;;;;;6266326;28;20086;-52
2023/04/20 06:42:44;;;;;;;48.60;20.15;;;;;;;;;;6266063;28;20041;-59
2023/04/20 06:45:45;;;;;;;54.70;22.42;;;;;;;;;;6266795;28;20066;-52
2023/04/20 06:48:46;;;;;;;59.30;22.90;;;;;;;;;;6266264;28;20126;-53
2023/04/20 06:51:46;;;;;;;52.17;21.58;;;;;;;;;;6265459;28;20046;-55
2023/04/20 06:54:47;;;;;;;54.85;22.08;;;;;;;;;;6268457;28;20052;-53
2023/04/20 06:57:48;;;;;;;55.80;21.52;;;;;;;;;;6268619;28;20049;-55
2023/04/20 07:00:48;;;;;;;57.45;22.40;;;;;;;;;;6264923;28;20040;-54
2023/04/20 07:03:49;;;;;;;57.22;23.60;;;;;;;;;;6267013;28;20074;-53
2023/04/20 07:06:50;;;;;;;54.83;23.00;;;;;;;;;;6266281;28;20045;-53
2023/04/20 07:09:50;;;;;;;53.40;24.15;;;;;;;;;;6265617;28;20037;-54
2023/04/20 07:12:51;;;;;;;51.55;22.73;;;;;;;;;;6267939;28;20052;-55
2023/04/20 07:15:51;;;;;;;53.75;22.85;;;;;;;;;;6267199;28;20695;-54
2023/04/20 07:18:52;;;;;;;60.15;23.67;;;;;;;;;;6267278;28;20053;-53
2023/04/20 07:21:52;;;;;;;51.08;22.98;;;;;;;;;;6264908;28;20079;-55
2023/04/20 07:24:53;;;;;;;49.22;21.55;;;;;;;;;;6267764;28;20037;-54
2023/04/20 07:27:53;;;;;;;50.03;22.23;;;;;;;;;;6268800;28;20065;-61
2023/04/20 07:30:54;;;;;;;53.17;21.42;;;;;;;;;;6267581;28;20044;-55
2023/04/20 07:33:55;;;;;;;54.45;22.67;;;;;;;;;;6270891;28;20083;-60
2023/04/20 07:36:55;;;;;;;51.03;22.63;;;;;;;;;;6267255;28;20045;-53
2023/04/20 07:39:56;;;;;;;53.28;23.10;;;;;;;;;;6269045;28;20045;-55
2023/04/20 07:42:57;;;;;;;48.67;21.92;;;;;;;;;;6270532;28;20044;-53
2023/04/20 07:45:57;;;;;;;52.58;21.77;;;;;;;;;;6268653;28;20143;-53
2023/04/20 07:48:58;;;;;;;55.30;21.98;;;;;;;;;;6265935;28;20045;-54
2023/04/20 07:51:59;;;;;;;48.20;20.05;;;;;;;;;;6267574;28;20045;-51
2023/04/20 07:55:00;;;;;;;52.38;20.75;;;;;;;;;;6273871;28;20049;-55
2023/04/20 07:58:00;;;;;;;49.83;20.65;;;;;;;;;;6268445;28;20092;-54
2023/04/20 08:01:01;;;;;;;53.30;22.92;;;;;;;;;;6270996;28;20049;-56
2023/04/20 08:04:02;;;;;;;50.42;22.10;;;;;;;;;;6270893;28;20061;-53
2023/04/20 08:07:02;;;;;;;49.28;21.23;;;;;;;;;;6271429;28;20053;-54
2023/04/20 08:10:04;;;;;;;50.10;21.08;;;;;;;;;;6268555;28;20492;-60
2023/04/20 08:13:05;;;;;;;56.47;23.48;;;;;;;;;;6269072;28;20553;-53
2023/04/20 08:16:06;;;;;;;54.25;22.83;;;;;;;;;;6267441;28;20045;-55
2023/04/20 08:19:09;;;;;;;48.78;20.35;;;;;;;;;;6268297;28;20033;-54
2023/04/20 08:22:11;;;;;;;47.08;21.42;;;;;;;;;;6267543;28;20506;-52
2023/04/20 08:25:11;;;;;;;45.92;20.40;;;;;;;;;;6270849;28;20049;-54
2023/04/20 08:28:12;;;;;;;42.55;19.85;;;;;;;;;;6270445;28;20074;-51
2023/04/20 08:31:13;;;;;;;43.58;19.45;;;;;;;;;;6269476;28;20040;-54
2023/04/20 08:34:13;;;;;;;42.97;17.88;;;;;;;;;;6270772;28;20137;-53
2023/04/20 08:37:14;;;;;;;41.70;17.83;;;;;;;;;;6270398;28;20053;-51
2023/04/20 08:40:18;;;;;;;39.53;18.70;;;;;;;;;;6267282;28;20059;-52
2023/04/20 08:43:19;;;;;;;41.40;17.30;;;;;;;;;;6268548;28;20037;-50
2023/04/20 08:46:20;;;;;;;39.33;17.30;;;;;;;;;;6270327;28;20046;-54
2023/04/20 08:49:21;;;;;;;42.70;20.27;;;;;;;;;;6269051;28;20041;-51
2023/04/20 08:52:22;;;;;;;43.10;18.57;;;;;;;;;;6269418;28;20052;-54
2023/04/20 08:55:23;;;;;;;37.50;17.75;;;;;;;;;;6269509;28;20046;-53
2023/04/20 08:58:27;;;;;;;32.92;15.55;;;;;;;;;;6269626;28;20506;-52
2023/04/20 09:01:28;;;;;;;36.22;15.80;;;;;;;;;;6266252;28;20049;-50
2023/04/20 09:04:29;;;;;;;37.03;17.33;;;;;;;;;;6269027;28;20554;-54
2023/04/20 09:07:30;;;;;;;30.23;14.20;;;;;;;;;;6270727;28;20384;-53
2023/04/20 09:10:40;;;;;;;32.60;13.23;;;;;;;;;;6267475;28;20865;-52
2023/04/20 09:13:41;;;;;;;24.98;13.18;;;;;;;;;;6267851;28;20733;-50
2023/04/20 09:16:59;;;;;;;28.92;14.05;;;;;;;;;;6269074;28;20038;-51
2023/04/20 09:20:00;;;;;;;27.70;12.75;;;;;;;;;;6268407;28;20048;-53
2023/04/20 09:23:14;;;;;;;27.17;13.52;;;;;;;;;;6269484;28;20488;-56
2023/04/20 09:26:18;;;;;;;22.73;10.90;;;;;;;;;;6266760;28;20041;-50
2023/04/20 09:29:23;;;;;;;26.42;12.43;;;;;;;;;;6267954;28;20036;-53
2023/04/20 09:32:24;;;;;;;26.20;13.23;;;;;;;;;;6265068;28;20136;-52
2023/04/20 09:35:25;;;;;;;28.42;12.35;;;;;;;;;;6266209;28;20048;-53
2023/04/20 09:38:26;;;;;;;23.50;11.48;;;;;;;;;;6266824;28;20049;-54
2023/04/20 09:41:26;;;;;;;16.38;9.00;;;;;;;;;;6267843;28;20044;-54
2023/04/20 09:44:27;;;;;;;17.35;9.35;;;;;;;;;;6266872;28;20071;-57
2023/04/20 09:47:29;;;;;;;20.73;8.77;;;;;;;;;;6269291;28;20101;-54
2023/04/20 09:50:31;;;;;;;16.90;8.52;;;;;;;;;;6265747;28;20052;-54
2023/04/20 09:53:33;;;;;;;20.85;9.15;;;;;;;;;;6268235;28;20039;-53
2023/04/20 09:56:34;;;;;;;17.15;8.82;;;;;;;;;;6266838;28;20045;-54
2023/04/20 09:59:36;;;;;;;19.27;10.52;;;;;;;;;;6265811;28;20127;-52
2023/04/20 10:02:36;;;;;;;22.38;10.55;;;;;;;;;;6264255;28;20171;-53
2023/04/20 10:05:38;;;;;;;24.60;11.23;;;;;;;;;;6267314;28;20448;-55
2023/04/20 10:08:40;;;;;;;23.95;11.70;;;;;;;;;;6266351;28;20098;-53
2023/04/20 10:11:42;;;;;;;26.50;11.40;;;;;;;;;;6265689;28;20649;-56
2023/04/20 10:14:54;;;;;;;23.67;11.23;;;;;;;;;;6265956;28;20045;-54
2023/04/20 10:17:55;;;;;;;19.55;9.23;;;;;;;;;;6267438;28;20367;-60
2023/04/20 10:21:08;;;;;;;15.55;8.35;;;;;;;;;;6266611;28;20041;-54
2023/04/20 10:24:08;;;;;;;18.63;8.25;;;;;;;;;;6267349;28;20138;-55
2023/04/20 10:27:19;;;;;;;17.05;8.60;;;;;;;;;;6266824;28;20045;-55
2023/04/20 10:30:21;;;;;;;17.25;8.07;;;;;;;;;;6267752;28;20048;-53
2023/04/20 10:33:22;;;;;;;17.98;8.55;;;;;;;;;;6268427;28;20048;-55
2023/04/20 10:36:28;;;;;;;15.93;8.00;;;;;;;;;;6267528;28;20513;-51
2023/04/20 10:39:31;;;;;;;14.13;7.50;;;;;;;;;;6267635;28;20044;-55
2023/04/20 10:42:44;;;;;;;14.88;7.40;;;;;;;;;;6265978;28;20041;-57
2023/04/20 10:45:45;;;;;;;12.55;7.55;;;;;;;;;;6266837;28;20049;-54
2023/04/20 10:48:49;;;;;;;14.15;7.68;;;;;;;;;;6266326;28;20056;-54
2023/04/20 10:51:50;;;;;;;14.60;8.48;;;;;;;;;;6267681;28;20557;-51
2023/04/20 10:54:51;;;;;;;13.35;6.57;;;;;;;;;;6264750;28;20389;-53
2023/04/20 10:57:52;;;;;;;17.25;7.15;;;;;;;;;;6265072;28;20037;-56
2023/04/20 11:00:56;;;;;;;12.17;6.87;;;;;;;;;;6265001;28;20451;-52
2023/04/20 11:03:57;;;;;;;13.50;6.30;;;;;;;;;;6271718;28;20404;-53
2023/04/20 11:07:08;;;;;;;11.05;6.72;;;;;;;;;;6272608;28;20084;-53
2023/04/20 11:10:09;;;;;;;10.10;6.22;;;;;;;;;;6274150;28;20403;-52
2023/04/20 11:13:21;;;;;;;13.18;6.53;;;;;;;;;;6274641;28;20041;-54
2023/04/20 11:16:21;;;;;;;16.58;7.50;;;;;;;;;;6274289;28;20123;-58
2023/04/20 11:19:27;;;;;;;13.90;7.63;;;;;;;;;;6270594;28;20049;-53
2023/04/20 11:22:27;;;;;;;12.10;7.50;;;;;;;;;;6267362;28;20052;-52
2023/04/20 11:25:28;;;;;;;15.23;7.13;;;;;;;;;;6272132;28;20100;-54
2023/04/20 11:28:33;;;;;;;11.55;6.93;;;;;;;;;;6269533;28;20056;-52
2023/04/20 11:31:34;;;;;;;12.88;6.50;;;;;;;;;;6272094;28;20070;-57
2023/04/20 11:34:36;;;;;;;12.35;6.75;;;;;;;;;;6270002;28;20045;-52
2023/04/20 11:37:50;;;;;;;16.85;7.35;;;;;;;;;;6268628;28;20044;-60
2023/04/20 11:40:50;;;;;;;15.27;8.68;;;;;;;;;;6268813;28;20797;-53
2023/04/20 11:43:51;;;;;;;17.00;9.43;;;;;;;;;;6265453;28;20090;-54
2023/04/20 11:46:53;;;;;;;16.08;9.73;;;;;;;;;;6267970;28;20204;-51
2023/04/20 11:49:54;;;;;;;16.75;9.40;;;;;;;;;;6266110;28;20388;-54
2023/04/20 11:52:55;;;;;;;19.85;11.48;;;;;;;;;;6267822;28;20060;-51
2023/04/20 11:55:55;;;;;;;16.33;10.15;;;;;;;;;;6270152;28;20041;-53
2023/04/20 11:58:56;;;;;;;15.25;9.05;;;;;;;;;;6276677;28;20051;-54
2023/04/20 12:02:00;;;;;;;16.60;10.23;;;;;;;;;;6274980;28;20810;-53
2023/04/20 12:05:01;;;;;;;17.58;9.32;;;;;;;;;;6277867;28;20052;-49
2023/04/20 12:08:01;;;;;;;16.67;9.43;;;;;;;;;;6272940;28;20522;-53
2023/04/20 12:11:02;;;;;;;16.38;9.98;;;;;;;;;;6273641;28;20063;-51
2023/04/20 12:14:03;;;;;;;19.63;10.32;;;;;;;;;;6276740;28;20052;-53
2023/04/20 12:17:04;;;;;;;19.90;10.57;;;;;;;;;;6270938;28;20044;-54
2023/04/20 12:20:07;;;;;;;17.85;10.13;;;;;;;;;;6274444;28;20074;-52
2023/04/20 12:23:07;;;;;;;17.63;10.95;;;;;;;;;;6275524;28;20055;-55
2023/04/20 12:26:08;;;;;;;23.95;11.90;;;;;;;;;;6275761;28;20052;-54
2023/04/20 12:29:09;;;;;;;17.98;9.75;;;;;;;;;;6276954;28;20141;-55
2023/04/20 12:32:10;;;;;;;19.50;9.88;;;;;;;;;;6277245;28;20051;-52
2023/04/20 12:35:10;;;;;;;17.05;9.57;;;;;;;;;;6276937;28;20094;-56
2023/04/20 12:38:11;;;;;;;17.02;10.05;;;;;;;;;;6272931;28;20044;-53
2023/04/20 12:41:15;;;;;;;16.67;8.82;;;;;;;;;;6276202;28;20050;-52
2023/04/20 12:44:16;;;;;;;14.88;9.60;;;;;;;;;;6279554;28;20049;-51
2023/04/20 12:47:16;;;;;;;18.63;9.68;;;;;;;;;;6280366;28;20039;-51
2023/04/20 12:50:17;;;;;;;15.30;9.40;;;;;;;;;;6271842;28;20475;-55
2023/04/20 12:53:18;;;;;;;15.85;8.20;;;;;;;;;;6276544;28;20037;-49
2023/04/20 12:56:19;;;;;;;17.33;10.20;;;;;;;;;;6275183;28;20051;-54
2023/04/20 12:59:20;;;;;;;13.40;7.68;;;;;;;;;;6272313;28;20052;-59
2023/04/20 13:02:21;;;;;;;13.35;7.22;;;;;;;;;;6272756;28;20052;-55
2023/04/20 13:05:22;;;;;;;13.80;7.78;;;;;;;;;;6272072;28;20187;-61
2023/04/20 13:08:22;;;;;;;13.85;6.80;;;;;;;;;;6272339;28;20044;-56
2023/04/20 13:11:23;;;;;;;13.77;7.20;;;;;;;;;;6273286;28;20071;-56
2023/04/20 13:14:25;;;;;;;18.65;8.07;;;;;;;;;;6276439;28;20052;-51
2023/04/20 13:17:25;;;;;;;18.77;7.90;;;;;;;;;;6274817;28;20052;-54
2023/04/20 13:20:28;;;;;;;13.82;7.13;;;;;;;;;;6276277;28;20831;-53
2023/04/20 13:23:28;;;;;;;15.63;8.40;;;;;;;;;;6273064;28;20163;-53
2023/04/20 13:26:29;;;;;;;15.55;7.30;;;;;;;;;;6275230;28;20162;-53
2023/04/20 13:29:30;;;;;;;14.93;6.82;;;;;;;;;;6271965;28;20040;-55
2023/04/20 13:32:31;;;;;;;13.57;6.40;;;;;;;;;;6276390;28;20047;-54
2023/04/20 13:35:33;;;;;;;12.50;6.13;;;;;;;;;;6272642;28;20074;-54
2023/04/20 13:38:34;;;;;;;;;;;;;;;;;;6273252;28;20110;-52
2023/04/20 13:41:34;;;;;;;11.25;5.75;;;;;;;;;;6273188;28;20428;-54
2023/04/20 13:44:35;;;;;;;14.32;6.35;;;;;;;;;;6275800;28;20398;-55
2023/04/20 13:47:37;;;;;;;13.07;5.70;;;;;;;;;;6275794;28;20048;-57
2023/04/20 13:50:38;;;;;;;;;;;;;;;;;;6273082;28;20052;-53
2023/04/20 13:53:38;;;;;;;13.98;5.50;;;;;;;;;;6278260;28;19969;-52
2023/04/20 13:56:39;;;;;;;14.27;4.80;;;;;;;;;;6269863;28;20044;-54
2023/04/20 13:59:39;;;;;;;12.63;5.05;;;;;;;;;;6273429;28;20036;-53
2023/04/20 14:02:40;;;;;;;14.65;5.30;;;;;;;;;;6274214;28;20063;-55
2023/04/20 14:05:41;;;;;;;11.82;5.07;;;;;;;;;;6275533;28;20102;-54
2023/04/20 14:08:42;;;;;;;9.15;4.60;;;;;;;;;;6275753;28;20051;-53
2023/04/20 14:11:44;;;;;;;14.55;5.10;;;;;;;;;;6276044;28;20136;-52
2023/04/20 14:14:44;;;;;;;16.35;4.75;;;;;;;;;;6273438;28;20185;-52
2023/04/20 14:17:46;;;;;;;11.10;4.53;;;;;;;;;;6271302;28;20180;-50
2023/04/20 14:20:51;;;;;;;12.10;4.90;;;;;;;;;;6275014;28;20674;-52
2023/04/20 14:23:52;;;;;;;13.05;4.47;;;;;;;;;;6274224;28;20517;-51
2023/04/20 14:26:53;;;;;;;10.52;4.78;;;;;;;;;;6274805;28;20093;-58
2023/04/20 14:29:53;;;;;;;12.13;4.60;;;;;;;;;;6272653;28;20060;-51
2023/04/20 14:32:59;;;;;;;14.30;4.93;;;;;;;;;;6275675;28;20036;-51
2023/04/20 14:35:59;;;;;;;10.50;4.10;;;;;;;;;;6276651;28;20549;-60
2023/04/20 14:39:01;;;;;;;10.73;3.92;;;;;;;;;;6275310;28;20444;-54
2023/04/20 14:42:01;;;;;;;9.65;4.00;;;;;;;;;;6274398;28;20045;-54
2023/04/20 14:45:02;;;;;;;12.32;4.30;;;;;;;;;;6277538;28;20052;-59
2023/04/20 14:48:03;;;;;;;11.65;4.20;;;;;;;;;;6272071;28;20381;-55
2023/04/20 14:51:04;;;;;;;12.35;3.88;;;;;;;;;;6275769;28;20097;-57
2023/04/20 14:54:04;;;;;;;10.90;3.80;;;;;;;;;;6276157;28;20044;-51
2023/04/20 14:57:05;;;;;;;11.85;4.63;;;;;;;;;;6272957;28;20052;-58
2023/04/20 15:00:06;;;;;;;14.93;4.38;;;;;;;;;;6272384;28;20049;-52
2023/04/20 15:03:07;;;;;;;9.97;3.70;;;;;;;;;;6275461;28;21450;-54
2023/04/20 15:06:07;;;;;;;11.65;4.53;;;;;;;;;;6275576;28;20316;-56
2023/04/20 15:09:09;;;;;;;14.48;5.65;;;;;;;;;;6277415;28;20052;-55
2023/04/20 15:12:10;;;;;;;10.17;4.40;;;;;;;;;;6276501;28;20036;-56
2023/04/20 15:15:10;;;;;;;11.10;3.83;;;;;;;;;;6275319;28;20045;-57
2023/04/20 15:18:11;;;;;;;16.05;5.25;;;;;;;;;;6274839;28;20044;-57
2023/04/20 15:21:13;;;;;;;16.20;6.85;;;;;;;;;;6278620;28;20055;-52
2023/04/20 15:24:13;;;;;;;;;;;;;;;;;;6277481;28;20071;-54
2023/04/20 15:27:15;;;;;;;11.40;3.88;;;;;;;;;;6278881;28;19924;-58
2023/04/20 15:30:16;;;;;;;12.63;4.05;;;;;;;;;;6273742;28;20048;-55
2023/04/20 15:33:17;;;;;;;10.95;3.55;;;;;;;;;;6272238;28;20160;-55
2023/04/20 15:36:18;;;;;;;8.20;3.67;;;;;;;;;;6275442;28;20087;-53
2023/04/20 15:39:19;;;;;;;9.18;4.22;;;;;;;;;;6275143;28;20044;-55
2023/04/20 15:42:21;;;;;;;12.55;4.40;;;;;;;;;;6279301;28;20087;-53
2023/04/20 15:45:21;;;;;;;10.30;4.40;;;;;;;;;;6280799;28;20041;-56
2023/04/20 15:48:22;;;;;;;9.88;4.00;;;;;;;;;;6281157;28;20052;-54
2023/04/20 15:51:23;;;;;;;9.15;4.28;;;;;;;;;;6283143;28;20545;-54
2023/04/20 15:54:24;;;;;;;10.85;4.47;;;;;;;;;;6284406;28;20048;-55
2023/04/20 15:57:24;;;;;;;12.05;5.05;;;;;;;;;;6282660;28;20055;-55
2023/04/20 16:00:25;;;;;;;8.90;4.68;;;;;;;;;;6280239;28;20053;-53
2023/04/20 16:03:26;;;;;;;15.27;5.97;;;;;;;;;;6282968;28;20765;-50
2023/04/20 16:06:27;;;;;;;16.77;6.00;;;;;;;;;;6279695;28;20122;-55
2023/04/20 16:09:27;;;;;;;12.70;4.05;;;;;;;;;;6281349;28;20053;-58
2023/04/20 16:12:28;;;;;;;14.95;5.05;;;;;;;;;;6282981;28;20048;-54
2023/04/20 16:15:30;;;;;;;11.52;4.55;;;;;;;;;;6281842;28;20049;-63
2023/04/20 16:18:33;;;;;;;11.52;5.03;;;;;;;;;;6279945;28;20061;-54
2023/04/20 16:21:35;;;;;;;10.85;4.43;;;;;;;;;;6281628;28;20056;-61
2023/04/20 16:24:35;;;;;;;13.20;4.90;;;;;;;;;;6278323;28;20499;-56
2023/04/20 16:27:36;;;;;;;11.43;4.68;;;;;;;;;;6285932;28;20048;-53
2023/04/20 16:30:37;;;;;;;11.38;4.10;;;;;;;;;;6284138;28;21413;-55
2023/04/20 16:33:38;;;;;;;11.98;4.72;;;;;;;;;;6286569;28;20036;-54
2023/04/20 16:36:38;;;;;;;15.05;4.40;;;;;;;;;;6285966;28;20048;-53
2023/04/20 16:39:39;;;;;;;16.95;5.40;;;;;;;;;;6279915;28;20477;-54
2023/04/20 16:42:40;;;;;;;11.48;4.50;;;;;;;;;;6287971;28;20533;-55
2023/04/20 16:45:40;;;;;;;13.63;5.05;;;;;;;;;;6288033;28;20067;-51
2023/04/20 16:48:41;;;;;;;15.75;5.10;;;;;;;;;;6282364;28;20048;-58
2023/04/20 16:51:42;;;;;;;12.35;4.70;;;;;;;;;;6283506;28;20043;-61
2023/04/20 16:54:43;;;;;;;15.75;6.75;;;;;;;;;;6282776;28;20040;-61
2023/04/20 16:57:44;;;;;;;11.30;4.90;;;;;;;;;;6284992;28;20094;-53
2023/04/20 17:00:44;;;;;;;16.48;5.47;;;;;;;;;;6286433;28;20036;-53
2023/04/20 17:03:46;;;;;;;13.85;5.85;;;;;;;;;;6282057;28;20155;-62
2023/04/20 17:06:47;;;;;;;16.15;6.00;;;;;;;;;;6282041;28;20053;-60
2023/04/20 17:09:47;;;;;;;10.73;5.72;;;;;;;;;;6282387;28;20047;-56
2023/04/20 17:12:49;;;;;;;14.15;6.53;;;;;;;;;;6287197;28;20045;-54
2023/04/20 17:15:50;;;;;;;14.77;7.18;;;;;;;;;;6284883;28;20056;-53
2023/04/20 17:18:51;;;;;;;17.38;7.72;;;;;;;;;;6287398;28;20051;-55
2023/04/20 17:21:52;;;;;;;16.17;6.82;;;;;;;;;;6286618;28;20048;-55
2023/04/20 17:24:53;;;;;;;20.27;6.13;;;;;;;;;;6283070;28;20044;-60
2023/04/20 17:27:54;;;;;;;13.03;5.60;;;;;;;;;;6287189;28;20041;-58
2023/04/20 17:30:54;;;;;;;18.38;6.68;;;;;;;;;;6285925;28;20060;-57
2023/04/20 17:33:55;;;;;;;17.73;6.63;;;;;;;;;;6282815;28;20044;-55
2023/04/20 17:36:56;;;;;;;16.88;6.10;;;;;;;;;;6280293;28;20388;-50
2023/04/20 17:39:57;;;;;;;17.02;6.72;;;;;;;;;;6273503;28;20054;-51
2023/04/20 17:42:57;;;;;;;21.67;8.05;;;;;;;;;;6274978;28;20053;-52